Belfort, France

5:43 PM CEST on July 28, 2016 (GMT +0200)
belfort | | Change Station

Elev 1227 ft 47.64 °N, 6.90 °E | Updated 1 minute ago

Mostly Cloudy
Mostly Cloudy
72.7 °F
Feels Like 76 °F
N
2.0
Wind Variable Wind from NNE

Today
High -- | Low -- °F
--% Chance of Precip.
Yesterday
High -- | Low -- °F
Precip. -- in
Pressure 30.06 in
Visibility 6.2 miles
Clouds Few 3600 ft
Mostly Cloudy 4200 ft
Mostly Cloudy 5200 ft
Heat Index 76 °F
Dew Point 59 °F
Humidity 63%
Rainfall 0.00 in
Snow Depth Not available.
6:05 AM 9:11 PM
Waning Crescent, 31% visible
METAR LFSX 281530Z AUTO 23011KT 190V250 9999 FEW036/// BKN042/// BKN052/// ///TCU 23/15 Q1018
Pressure 30.06 in
Visibility 6.2 miles
Clouds Few 3600 ft
Mostly Cloudy 4200 ft
Mostly Cloudy 5200 ft
Heat Index 76 °F
Dew Point 59 °F
Humidity 63%
Rainfall 0.00 in
Snow Depth Not available.
6:05 AM 9:11 PM
Waning Crescent, 31% visible
METAR LFSX 281530Z AUTO 23011KT 190V250 9999 FEW036/// BKN042/// BKN052/// ///TCU 23/15 Q1018

10-Day Weather Forecast

×

Almanac

Astronomy

Jul. 28, 2016 Rise Set
Actual Time
Civil Twilight
Nautical Twilight
Astronomical Twilight
Moon
Length of Visible Light
Length of Day
Tomorrow will be .
, % of the Moon is Illuminated

Today's Extremes

Country Highs Country Lows

Community

WunderPhotos

Upload Photos

1,928,140 photos uploaded!

WunderBlog® & News

Nearby

Air Quality

  Air Quality AQ Index Pollutant
Not available.

Snow Depth

Station Depth Elevation

Earthquake Activity

City Distance Mag. Time & Date
Minimum magnitude displayed is 2.5.

Coastal Water Temperatures

Place Temperature

Stations

Nearby Weather Stations

Station Location Temp. Windchill Dew Point Humidity Wind Precip. Elev Updated Type